sensor_id;sensor_type;location;lat;lon;timestamp;P1;durP1;ratioP1;P2;durP2;ratioP2
146;SDS011;45999;48.808;9.182;2023-07-29T00:02:18;3.77;;;3.47;;
146;SDS011;45999;48.808;9.182;2023-07-29T00:04:45;5.87;;;3.50;;
146;SDS011;45999;48.808;9.182;2023-07-29T00:07:11;5.70;;;3.30;;
146;SDS011;45999;48.808;9.182;2023-07-29T00:09:37;4.00;;;3.43;;
146;SDS011;45999;48.808;9.182;2023-07-29T00:12:04;5.20;;;3.33;;
146;SDS011;45999;48.808;9.182;2023-07-29T00:14:31;6.60;;;2.90;;
146;SDS011;45999;48.808;9.182;2023-07-29T00:16:57;5.97;;;3.23;;
146;SDS011;45999;48.808;9.182;2023-07-29T00:19:23;4.67;;;3.70;;
146;SDS011;45999;48.808;9.182;2023-07-29T00:21:50;3.90;;;3.50;;
146;SDS011;45999;48.808;9.182;2023-07-29T00:24:16;5.57;;;3.23;;
146;SDS011;45999;48.808;9.182;2023-07-29T00:26:42;4.20;;;2.83;;
146;SDS011;45999;48.808;9.182;2023-07-29T00:29:09;6.93;;;2.63;;
146;SDS011;45999;48.808;9.182;2023-07-29T00:31:35;2.77;;;2.40;;
146;SDS011;45999;48.808;9.182;2023-07-29T00:34:01;5.23;;;2.50;;
146;SDS011;45999;48.808;9.182;2023-07-29T00:36:28;2.83;;;2.50;;
146;SDS011;45999;48.808;9.182;2023-07-29T00:38:54;4.73;;;2.27;;
146;SDS011;45999;48.808;9.182;2023-07-29T00:41:22;3.47;;;2.30;;
146;SDS011;45999;48.808;9.182;2023-07-29T00:43:48;2.97;;;2.23;;
146;SDS011;45999;48.808;9.182;2023-07-29T00:46:15;2.53;;;2.30;;
146;SDS011;45999;48.808;9.182;2023-07-29T00:48:42;2.60;;;2.40;;
146;SDS011;45999;48.808;9.182;2023-07-29T00:51:09;3.77;;;2.60;;
146;SDS011;45999;48.808;9.182;2023-07-29T00:53:35;4.13;;;2.30;;
146;SDS011;45999;48.808;9.182;2023-07-29T00:56:02;6.53;;;2.53;;
146;SDS011;45999;48.808;9.182;2023-07-29T00:58:28;3.43;;;2.40;;
146;SDS011;45999;48.808;9.182;2023-07-29T01:00:55;3.07;;;2.40;;
146;SDS011;45999;48.808;9.182;2023-07-29T01:03:22;3.20;;;2.90;;
146;SDS011;45999;48.808;9.182;2023-07-29T01:05:50;2.80;;;2.60;;
146;SDS011;45999;48.808;9.182;2023-07-29T01:14:29;2.90;;;2.60;;
146;SDS011;45999;48.808;9.182;2023-07-29T01:17:08;3.83;;;2.90;;
146;SDS011;45999;48.808;9.182;2023-07-29T01:22:19;4.53;;;2.43;;
146;SDS011;45999;48.808;9.182;2023-07-29T01:24:47;3.87;;;2.57;;
146;SDS011;45999;48.808;9.182;2023-07-29T01:27:13;3.43;;;2.73;;
146;SDS011;45999;48.808;9.182;2023-07-29T01:29:40;4.27;;;2.70;;
146;SDS011;45999;48.808;9.182;2023-07-29T01:32:20;3.30;;;2.60;;
146;SDS011;45999;48.808;9.182;2023-07-29T01:34:52;5.70;;;2.80;;
146;SDS011;45999;48.808;9.182;2023-07-29T01:37:26;3.00;;;2.50;;
146;SDS011;45999;48.808;9.182;2023-07-29T01:39:54;2.93;;;2.73;;
146;SDS011;45999;48.808;9.182;2023-07-29T01:42:23;4.53;;;2.70;;
146;SDS011;45999;48.808;9.182;2023-07-29T01:44:50;3.20;;;2.40;;
146;SDS011;45999;48.808;9.182;2023-07-29T01:47:17;2.50;;;2.30;;
146;SDS011;45999;48.808;9.182;2023-07-29T01:49:43;2.43;;;2.23;;
146;SDS011;45999;48.808;9.182;2023-07-29T01:52:10;2.70;;;2.50;;
146;SDS011;45999;48.808;9.182;2023-07-29T01:54:36;2.97;;;2.30;;
146;SDS011;45999;48.808;9.182;2023-07-29T01:57:03;2.40;;;2.20;;
146;SDS011;45999;48.808;9.182;2023-07-29T01:59:29;2.33;;;2.13;;
146;SDS011;45999;48.808;9.182;2023-07-29T02:01:55;3.70;;;2.53;;
146;SDS011;45999;48.808;9.182;2023-07-29T02:04:22;4.77;;;2.50;;
146;SDS011;45999;48.808;9.182;2023-07-29T02:06:48;2.73;;;2.53;;
146;SDS011;45999;48.808;9.182;2023-07-29T02:09:14;2.10;;;2.00;;
146;SDS011;45999;48.808;9.182;2023-07-29T02:11:41;4.43;;;2.40;;
146;SDS011;45999;48.808;9.182;2023-07-29T02:14:07;3.03;;;2.50;;
146;SDS011;45999;48.808;9.182;2023-07-29T02:16:33;2.27;;;1.73;;
146;SDS011;45999;48.808;9.182;2023-07-29T02:19:01;2.90;;;1.80;;
146;SDS011;45999;48.808;9.182;2023-07-29T02:21:28;2.20;;;2.00;;
146;SDS011;45999;48.808;9.182;2023-07-29T02:23:54;1.60;;;1.50;;
146;SDS011;45999;48.808;9.182;2023-07-29T02:26:21;2.93;;;1.90;;
146;SDS011;45999;48.808;9.182;2023-07-29T02:28:48;2.47;;;2.23;;
146;SDS011;45999;48.808;9.182;2023-07-29T02:31:15;2.70;;;2.30;;
146;SDS011;45999;48.808;9.182;2023-07-29T02:33:49;2.77;;;2.30;;
146;SDS011;45999;48.808;9.182;2023-07-29T02:36:16;2.67;;;2.20;;
146;SDS011;45999;48.808;9.182;2023-07-29T02:38:42;6.03;;;2.70;;
146;SDS011;45999;48.808;9.182;2023-07-29T02:41:10;2.60;;;2.40;;
146;SDS011;45999;48.808;9.182;2023-07-29T02:43:38;5.37;;;2.33;;
146;SDS011;45999;48.808;9.182;2023-07-29T02:46:05;2.50;;;2.30;;
146;SDS011;45999;48.808;9.182;2023-07-29T02:48:32;3.07;;;2.30;;
146;SDS011;45999;48.808;9.182;2023-07-29T02:50:58;3.90;;;2.40;;
146;SDS011;45999;48.808;9.182;2023-07-29T02:53:25;3.43;;;2.63;;
146;SDS011;45999;48.808;9.182;2023-07-29T02:55:51;3.63;;;2.40;;
146;SDS011;45999;48.808;9.182;2023-07-29T02:58:18;4.17;;;3.00;;
146;SDS011;45999;48.808;9.182;2023-07-29T03:00:44;4.03;;;2.93;;
146;SDS011;45999;48.808;9.182;2023-07-29T03:03:12;2.97;;;2.77;;
146;SDS011;45999;48.808;9.182;2023-07-29T03:05:39;3.97;;;2.90;;
146;SDS011;45999;48.808;9.182;2023-07-29T03:08:05;3.07;;;2.77;;
146;SDS011;45999;48.808;9.182;2023-07-29T03:10:34;2.97;;;2.70;;
146;SDS011;45999;48.808;9.182;2023-07-29T03:13:01;4.13;;;2.50;;
146;SDS011;45999;48.808;9.182;2023-07-29T03:15:27;3.03;;;2.60;;
146;SDS011;45999;48.808;9.182;2023-07-29T03:17:53;2.67;;;2.47;;
146;SDS011;45999;48.808;9.182;2023-07-29T03:20:20;3.20;;;2.40;;
146;SDS011;45999;48.808;9.182;2023-07-29T03:22:46;5.97;;;2.80;;
146;SDS011;45999;48.808;9.182;2023-07-29T03:25:13;5.13;;;2.60;;
146;SDS011;45999;48.808;9.182;2023-07-29T03:27:39;4.20;;;3.03;;
146;SDS011;45999;48.808;9.182;2023-07-29T03:30:06;2.70;;;2.50;;
146;SDS011;45999;48.808;9.182;2023-07-29T03:32:32;6.80;;;2.57;;
146;SDS011;45999;48.808;9.182;2023-07-29T03:34:59;3.87;;;2.60;;
146;SDS011;45999;48.808;9.182;2023-07-29T03:37:25;4.33;;;1.90;;
146;SDS011;45999;48.808;9.182;2023-07-29T03:39:51;2.60;;;1.80;;
146;SDS011;45999;48.808;9.182;2023-07-29T03:42:18;4.20;;;2.00;;
146;SDS011;45999;48.808;9.182;2023-07-29T03:44:44;2.43;;;2.23;;
146;SDS011;45999;48.808;9.182;2023-07-29T03:47:10;2.03;;;1.80;;
146;SDS011;45999;48.808;9.182;2023-07-29T03:49:37;2.13;;;1.70;;
146;SDS011;45999;48.808;9.182;2023-07-29T03:52:04;4.20;;;2.00;;
146;SDS011;45999;48.808;9.182;2023-07-29T03:54:30;1.97;;;1.83;;
146;SDS011;45999;48.808;9.182;2023-07-29T03:56:57;4.27;;;1.83;;
146;SDS011;45999;48.808;9.182;2023-07-29T03:59:23;2.30;;;1.77;;
146;SDS011;45999;48.808;9.182;2023-07-29T04:01:49;3.13;;;1.83;;
146;SDS011;45999;48.808;9.182;2023-07-29T04:04:16;2.27;;;2.07;;
146;SDS011;45999;48.808;9.182;2023-07-29T04:06:42;5.53;;;2.30;;
146;SDS011;45999;48.808;9.182;2023-07-29T04:09:08;4.67;;;2.10;;
146;SDS011;45999;48.808;9.182;2023-07-29T04:11:35;3.17;;;2.10;;
146;SDS011;45999;48.808;9.182;2023-07-29T04:14:01;4.33;;;2.27;;
146;SDS011;45999;48.808;9.182;2023-07-29T04:16:28;2.47;;;2.00;;
146;SDS011;45999;48.808;9.182;2023-07-29T04:18:54;4.17;;;2.23;;
146;SDS011;45999;48.808;9.182;2023-07-29T04:21:21;2.53;;;2.03;;
146;SDS011;45999;48.808;9.182;2023-07-29T04:23:47;2.30;;;1.83;;
146;SDS011;45999;48.808;9.182;2023-07-29T04:26:13;6.40;;;2.40;;
146;SDS011;45999;48.808;9.182;2023-07-29T04:28:40;2.40;;;2.20;;
146;SDS011;45999;48.808;9.182;2023-07-29T04:31:06;2.83;;;2.20;;
146;SDS011;45999;48.808;9.182;2023-07-29T04:33:33;4.33;;;2.23;;
146;SDS011;45999;48.808;9.182;2023-07-29T04:35:59;2.90;;;2.27;;
146;SDS011;45999;48.808;9.182;2023-07-29T04:38:30;10.20;;;3.00;;
146;SDS011;45999;48.808;9.182;2023-07-29T04:40:58;5.97;;;2.60;;
146;SDS011;45999;48.808;9.182;2023-07-29T04:43:30;5.00;;;2.60;;
146;SDS011;45999;48.808;9.182;2023-07-29T04:45:57;4.97;;;2.70;;
146;SDS011;45999;48.808;9.182;2023-07-29T04:48:23;7.57;;;2.83;;
146;SDS011;45999;48.808;9.182;2023-07-29T04:50:50;2.60;;;2.40;;
146;SDS011;45999;48.808;9.182;2023-07-29T04:53:16;4.73;;;2.50;;
146;SDS011;45999;48.808;9.182;2023-07-29T04:55:43;2.57;;;2.27;;
146;SDS011;45999;48.808;9.182;2023-07-29T04:58:09;7.00;;;2.80;;
146;SDS011;45999;48.808;9.182;2023-07-29T05:00:37;3.37;;;2.83;;
146;SDS011;45999;48.808;9.182;2023-07-29T05:03:03;6.33;;;3.40;;
146;SDS011;45999;48.808;9.182;2023-07-29T05:05:30;4.37;;;2.70;;
146;SDS011;45999;48.808;9.182;2023-07-29T05:07:56;4.37;;;2.87;;
146;SDS011;45999;48.808;9.182;2023-07-29T05:10:22;4.73;;;2.63;;
146;SDS011;45999;48.808;9.182;2023-07-29T05:12:49;3.07;;;2.77;;
146;SDS011;45999;48.808;9.182;2023-07-29T05:15:15;4.43;;;3.03;;
146;SDS011;45999;48.808;9.182;2023-07-29T05:17:43;4.70;;;2.80;;
146;SDS011;45999;48.808;9.182;2023-07-29T05:20:10;4.07;;;2.67;;
146;SDS011;45999;48.808;9.182;2023-07-29T05:22:36;4.13;;;2.80;;
146;SDS011;45999;48.808;9.182;2023-07-29T05:25:03;4.13;;;2.43;;
146;SDS011;45999;48.808;9.182;2023-07-29T05:27:29;3.70;;;2.80;;
146;SDS011;45999;48.808;9.182;2023-07-29T05:29:56;3.20;;;2.90;;
146;SDS011;45999;48.808;9.182;2023-07-29T05:32:22;4.03;;;2.70;;
146;SDS011;45999;48.808;9.182;2023-07-29T05:34:48;4.37;;;3.37;;
146;SDS011;45999;48.808;9.182;2023-07-29T05:37:15;4.50;;;2.87;;
146;SDS011;45999;48.808;9.182;2023-07-29T05:39:41;3.63;;;3.00;;
146;SDS011;45999;48.808;9.182;2023-07-29T05:42:08;5.80;;;3.37;;
146;SDS011;45999;48.808;9.182;2023-07-29T05:44:34;4.20;;;2.90;;
146;SDS011;45999;48.808;9.182;2023-07-29T05:47:00;3.90;;;3.07;;
146;SDS011;45999;48.808;9.182;2023-07-29T05:49:27;4.80;;;3.20;;
146;SDS011;45999;48.808;9.182;2023-07-29T05:51:54;3.93;;;3.03;;
146;SDS011;45999;48.808;9.182;2023-07-29T05:54:20;3.90;;;2.67;;
146;SDS011;45999;48.808;9.182;2023-07-29T05:56:46;5.83;;;3.00;;
146;SDS011;45999;48.808;9.182;2023-07-29T05:59:13;3.93;;;2.77;;
146;SDS011;45999;48.808;9.182;2023-07-29T06:01:39;3.07;;;2.70;;
146;SDS011;45999;48.808;9.182;2023-07-29T06:04:05;2.97;;;2.77;;
146;SDS011;45999;48.808;9.182;2023-07-29T06:06:32;3.10;;;2.87;;
146;SDS011;45999;48.808;9.182;2023-07-29T06:08:58;3.77;;;2.93;;
146;SDS011;45999;48.808;9.182;2023-07-29T06:11:25;3.10;;;2.80;;
146;SDS011;45999;48.808;9.182;2023-07-29T06:13:51;3.50;;;3.20;;
146;SDS011;45999;48.808;9.182;2023-07-29T06:16:17;4.57;;;3.07;;
146;SDS011;45999;48.808;9.182;2023-07-29T06:18:44;3.37;;;3.07;;
146;SDS011;45999;48.808;9.182;2023-07-29T06:21:10;5.60;;;2.87;;
146;SDS011;45999;48.808;9.182;2023-07-29T06:23:41;4.80;;;2.83;;
146;SDS011;45999;48.808;9.182;2023-07-29T06:26:08;4.80;;;2.80;;
146;SDS011;45999;48.808;9.182;2023-07-29T06:28:35;3.40;;;2.70;;
146;SDS011;45999;48.808;9.182;2023-07-29T06:31:01;3.90;;;2.83;;
146;SDS011;45999;48.808;9.182;2023-07-29T06:33:27;3.03;;;2.73;;
146;SDS011;45999;48.808;9.182;2023-07-29T06:35:54;3.40;;;3.10;;
146;SDS011;45999;48.808;9.182;2023-07-29T06:38:20;4.53;;;3.00;;
146;SDS011;45999;48.808;9.182;2023-07-29T06:40:47;2.57;;;2.37;;
146;SDS011;45999;48.808;9.182;2023-07-29T06:43:14;4.03;;;2.63;;
146;SDS011;45999;48.808;9.182;2023-07-29T06:45:41;3.10;;;2.80;;
146;SDS011;45999;48.808;9.182;2023-07-29T06:48:07;3.13;;;2.70;;
146;SDS011;45999;48.808;9.182;2023-07-29T06:50:34;3.90;;;3.07;;
146;SDS011;45999;48.808;9.182;2023-07-29T06:53:00;4.97;;;2.73;;
146;SDS011;45999;48.808;9.182;2023-07-29T06:55:26;5.77;;;3.20;;
146;SDS011;45999;48.808;9.182;2023-07-29T06:57:53;4.77;;;3.40;;
146;SDS011;45999;48.808;9.182;2023-07-29T07:00:19;3.83;;;3.33;;
146;SDS011;45999;48.808;9.182;2023-07-29T07:02:46;5.33;;;3.20;;
146;SDS011;45999;48.808;9.182;2023-07-29T07:05:12;5.53;;;3.07;;
146;SDS011;45999;48.808;9.182;2023-07-29T07:07:38;5.20;;;2.90;;
146;SDS011;45999;48.808;9.182;2023-07-29T07:10:05;4.10;;;3.20;;
146;SDS011;45999;48.808;9.182;2023-07-29T07:12:31;3.87;;;2.60;;
146;SDS011;45999;48.808;9.182;2023-07-29T07:14:58;2.63;;;2.43;;
146;SDS011;45999;48.808;9.182;2023-07-29T07:17:24;3.70;;;2.43;;
146;SDS011;45999;48.808;9.182;2023-07-29T07:19:50;3.30;;;2.40;;
146;SDS011;45999;48.808;9.182;2023-07-29T07:22:17;2.80;;;2.43;;
146;SDS011;45999;48.808;9.182;2023-07-29T07:24:44;3.83;;;2.77;;
146;SDS011;45999;48.808;9.182;2023-07-29T07:27:10;4.80;;;2.17;;
146;SDS011;45999;48.808;9.182;2023-07-29T07:29:36;2.57;;;2.00;;
146;SDS011;45999;48.808;9.182;2023-07-29T07:32:03;4.03;;;2.30;;
146;SDS011;45999;48.808;9.182;2023-07-29T07:34:29;4.10;;;2.17;;
146;SDS011;45999;48.808;9.182;2023-07-29T07:36:56;5.57;;;2.47;;
146;SDS011;45999;48.808;9.182;2023-07-29T07:39:22;3.60;;;2.47;;
146;SDS011;45999;48.808;9.182;2023-07-29T07:41:48;3.43;;;1.97;;
146;SDS011;45999;48.808;9.182;2023-07-29T07:44:15;4.40;;;1.90;;
146;SDS011;45999;48.808;9.182;2023-07-29T07:46:43;2.80;;;1.60;;
146;SDS011;45999;48.808;9.182;2023-07-29T07:49:09;3.10;;;1.50;;
146;SDS011;45999;48.808;9.182;2023-07-29T07:51:35;1.93;;;1.40;;
146;SDS011;45999;48.808;9.182;2023-07-29T07:54:02;2.93;;;1.40;;
146;SDS011;45999;48.808;9.182;2023-07-29T07:56:28;1.50;;;1.40;;
146;SDS011;45999;48.808;9.182;2023-07-29T07:58:54;1.70;;;1.30;;
146;SDS011;45999;48.808;9.182;2023-07-29T08:01:21;3.30;;;1.77;;
146;SDS011;45999;48.808;9.182;2023-07-29T08:03:47;3.23;;;1.57;;
146;SDS011;45999;48.808;9.182;2023-07-29T08:06:13;2.90;;;1.60;;
146;SDS011;45999;48.808;9.182;2023-07-29T08:08:40;4.60;;;1.77;;
146;SDS011;45999;48.808;9.182;2023-07-29T08:11:06;1.60;;;1.40;;
146;SDS011;45999;48.808;9.182;2023-07-29T08:13:33;2.13;;;1.50;;
146;SDS011;45999;48.808;9.182;2023-07-29T08:15:59;2.10;;;1.43;;
146;SDS011;45999;48.808;9.182;2023-07-29T08:18:25;1.50;;;1.40;;
146;SDS011;45999;48.808;9.182;2023-07-29T08:20:55;1.30;;;1.20;;
146;SDS011;45999;48.808;9.182;2023-07-29T08:23:24;2.10;;;1.90;;
146;SDS011;45999;48.808;9.182;2023-07-29T08:25:54;4.13;;;1.60;;
146;SDS011;45999;48.808;9.182;2023-07-29T08:28:26;2.10;;;1.40;;
146;SDS011;45999;48.808;9.182;2023-07-29T08:30:53;1.17;;;1.17;;
146;SDS011;45999;48.808;9.182;2023-07-29T08:33:19;3.40;;;1.40;;
146;SDS011;45999;48.808;9.182;2023-07-29T08:35:45;1.20;;;1.20;;
146;SDS011;45999;48.808;9.182;2023-07-29T08:38:12;1.37;;;1.27;;
146;SDS011;45999;48.808;9.182;2023-07-29T08:40:42;1.60;;;1.50;;
146;SDS011;45999;48.808;9.182;2023-07-29T08:43:12;2.97;;;1.57;;
146;SDS011;45999;48.808;9.182;2023-07-29T08:45:42;1.50;;;1.40;;
146;SDS011;45999;48.808;9.182;2023-07-29T08:48:10;1.30;;;1.20;;
146;SDS011;45999;48.808;9.182;2023-07-29T08:50:38;1.40;;;1.30;;
146;SDS011;45999;48.808;9.182;2023-07-29T08:53:05;1.40;;;1.30;;
146;SDS011;45999;48.808;9.182;2023-07-29T08:55:32;1.27;;;1.17;;
146;SDS011;45999;48.808;9.182;2023-07-29T08:57:59;1.30;;;1.20;;
146;SDS011;45999;48.808;9.182;2023-07-29T09:00:27;1.53;;;1.43;;
146;SDS011;45999;48.808;9.182;2023-07-29T09:02:54;1.53;;;1.30;;
146;SDS011;45999;48.808;9.182;2023-07-29T09:05:22;1.20;;;1.20;;
146;SDS011;45999;48.808;9.182;2023-07-29T09:07:50;1.30;;;1.30;;
146;SDS011;45999;48.808;9.182;2023-07-29T09:10:20;1.40;;;1.30;;
146;SDS011;45999;48.808;9.182;2023-07-29T09:12:48;1.87;;;1.20;;
146;SDS011;45999;48.808;9.182;2023-07-29T09:15:25;1.27;;;1.20;;
146;SDS011;45999;48.808;9.182;2023-07-29T09:17:53;1.27;;;1.20;;
146;SDS011;45999;48.808;9.182;2023-07-29T09:20:25;1.42;;;1.33;;
146;SDS011;45999;48.808;9.182;2023-07-29T09:22:55;5.30;;;1.40;;
146;SDS011;45999;48.808;9.182;2023-07-29T09:25:25;1.90;;;1.30;;
146;SDS011;45999;48.808;9.182;2023-07-29T09:27:58;1.45;;;1.35;;
146;SDS011;45999;48.808;9.182;2023-07-29T09:30:25;1.40;;;1.30;;
146;SDS011;45999;48.808;9.182;2023-07-29T09:32:55;1.50;;;1.40;;
146;SDS011;45999;48.808;9.182;2023-07-29T09:35:23;1.33;;;1.23;;
146;SDS011;45999;48.808;9.182;2023-07-29T09:37:50;1.30;;;1.30;;
146;SDS011;45999;48.808;9.182;2023-07-29T09:40:17;1.40;;;1.30;;
146;SDS011;45999;48.808;9.182;2023-07-29T09:42:48;1.13;;;1.13;;
146;SDS011;45999;48.808;9.182;2023-07-29T09:45:19;1.98;;;1.30;;
146;SDS011;45999;48.808;9.182;2023-07-29T09:47:49;2.75;;;2.00;;
146;SDS011;45999;48.808;9.182;2023-07-29T09:50:16;2.47;;;1.30;;
146;SDS011;45999;48.808;9.182;2023-07-29T09:52:43;1.20;;;1.20;;
146;SDS011;45999;48.808;9.182;2023-07-29T09:55:11;1.50;;;1.30;;
146;SDS011;45999;48.808;9.182;2023-07-29T09:57:40;1.65;;;1.55;;
146;SDS011;45999;48.808;9.182;2023-07-29T10:00:07;1.52;;;1.42;;
146;SDS011;45999;48.808;9.182;2023-07-29T10:02:36;3.03;;;1.85;;
146;SDS011;45999;48.808;9.182;2023-07-29T10:05:05;1.55;;;1.45;;
146;SDS011;45999;48.808;9.182;2023-07-29T10:07:33;1.58;;;1.48;;
146;SDS011;45999;48.808;9.182;2023-07-29T10:10:02;1.35;;;1.33;;
146;SDS011;45999;48.808;9.182;2023-07-29T10:12:31;1.67;;;1.58;;
146;SDS011;45999;48.808;9.182;2023-07-29T10:15:04;1.65;;;1.55;;
146;SDS011;45999;48.808;9.182;2023-07-29T10:17:34;1.67;;;1.58;;
146;SDS011;45999;48.808;9.182;2023-07-29T10:20:03;1.52;;;1.42;;
146;SDS011;45999;48.808;9.182;2023-07-29T10:22:36;1.50;;;1.40;;
146;SDS011;45999;48.808;9.182;2023-07-29T10:25:14;2.40;;;1.40;;
146;SDS011;45999;48.808;9.182;2023-07-29T10:30:46;1.20;;;1.10;;
146;SDS011;45999;48.808;9.182;2023-07-29T10:33:12;1.45;;;1.20;;
146;SDS011;45999;48.808;9.182;2023-07-29T10:35:40;2.35;;;1.30;;
146;SDS011;45999;48.808;9.182;2023-07-29T10:38:07;1.50;;;1.38;;
146;SDS011;45999;48.808;9.182;2023-07-29T10:40:47;1.65;;;1.33;;
146;SDS011;45999;48.808;9.182;2023-07-29T10:43:36;1.17;;;1.13;;
146;SDS011;45999;48.808;9.182;2023-07-29T10:46:17;1.67;;;1.13;;
146;SDS011;45999;48.808;9.182;2023-07-29T10:48:51;1.38;;;1.20;;
146;SDS011;45999;48.808;9.182;2023-07-29T10:51:35;2.03;;;1.52;;
146;SDS011;45999;48.808;9.182;2023-07-29T10:56:36;1.70;;;1.50;;
146;SDS011;45999;48.808;9.182;2023-07-29T11:01:38;1.88;;;1.20;;
146;SDS011;45999;48.808;9.182;2023-07-29T11:15:04;1.20;;;1.20;;
146;SDS011;45999;48.808;9.182;2023-07-29T11:17:45;1.45;;;1.40;;
146;SDS011;45999;48.808;9.182;2023-07-29T11:20:16;1.95;;;1.63;;
146;SDS011;45999;48.808;9.182;2023-07-29T11:22:44;1.30;;;1.30;;
146;SDS011;45999;48.808;9.182;2023-07-29T11:25:12;1.85;;;1.50;;
146;SDS011;45999;48.808;9.182;2023-07-29T11:27:40;1.30;;;1.20;;
146;SDS011;45999;48.808;9.182;2023-07-29T11:30:07;2.85;;;1.50;;
146;SDS011;45999;48.808;9.182;2023-07-29T11:32:36;3.13;;;1.30;;
146;SDS011;45999;48.808;9.182;2023-07-29T11:35:07;1.55;;;1.40;;
146;SDS011;45999;48.808;9.182;2023-07-29T11:37:36;1.58;;;1.40;;
146;SDS011;45999;48.808;9.182;2023-07-29T11:40:03;2.28;;;1.60;;
146;SDS011;45999;48.808;9.182;2023-07-29T11:42:31;1.25;;;1.25;;
146;SDS011;45999;48.808;9.182;2023-07-29T11:44:59;3.33;;;1.30;;
146;SDS011;45999;48.808;9.182;2023-07-29T11:47:27;1.30;;;1.20;;
146;SDS011;45999;48.808;9.182;2023-07-29T11:49:53;1.63;;;1.30;;
146;SDS011;45999;48.808;9.182;2023-07-29T11:52:19;1.95;;;1.45;;
146;SDS011;45999;48.808;9.182;2023-07-29T11:54:47;1.30;;;1.20;;
146;SDS011;45999;48.808;9.182;2023-07-29T11:57:14;1.60;;;1.50;;
146;SDS011;45999;48.808;9.182;2023-07-29T11:59:43;1.50;;;1.38;;
146;SDS011;45999;48.808;9.182;2023-07-29T12:02:10;2.30;;;1.50;;
146;SDS011;45999;48.808;9.182;2023-07-29T12:04:38;1.75;;;1.48;;
146;SDS011;45999;48.808;9.182;2023-07-29T12:07:06;1.38;;;1.30;;
146;SDS011;45999;48.808;9.182;2023-07-29T12:09:34;1.50;;;1.40;;
146;SDS011;45999;48.808;9.182;2023-07-29T12:12:02;3.05;;;1.50;;
146;SDS011;45999;48.808;9.182;2023-07-29T12:14:29;1.52;;;1.40;;
146;SDS011;45999;48.808;9.182;2023-07-29T12:16:56;1.70;;;1.60;;
146;SDS011;45999;48.808;9.182;2023-07-29T12:19:30;1.67;;;1.58;;
146;SDS011;45999;48.808;9.182;2023-07-29T12:22:01;1.45;;;1.35;;
146;SDS011;45999;48.808;9.182;2023-07-29T12:24:32;1.80;;;1.70;;
146;SDS011;45999;48.808;9.182;2023-07-29T12:26:59;1.50;;;1.40;;
146;SDS011;45999;48.808;9.182;2023-07-29T12:29:26;2.08;;;1.98;;
146;SDS011;45999;48.808;9.182;2023-07-29T12:31:57;2.42;;;1.70;;
146;SDS011;45999;48.808;9.182;2023-07-29T12:34:28;1.63;;;1.52;;
146;SDS011;45999;48.808;9.182;2023-07-29T12:36:56;1.90;;;1.70;;
146;SDS011;45999;48.808;9.182;2023-07-29T12:39:28;1.70;;;1.60;;
146;SDS011;45999;48.808;9.182;2023-07-29T12:41:57;1.88;;;1.77;;
146;SDS011;45999;48.808;9.182;2023-07-29T12:44:29;1.80;;;1.70;;
146;SDS011;45999;48.808;9.182;2023-07-29T12:47:01;1.63;;;1.52;;
146;SDS011;45999;48.808;9.182;2023-07-29T12:49:29;1.88;;;1.75;;
146;SDS011;45999;48.808;9.182;2023-07-29T12:51:57;1.75;;;1.65;;
146;SDS011;45999;48.808;9.182;2023-07-29T12:54:23;1.83;;;1.73;;
146;SDS011;45999;48.808;9.182;2023-07-29T12:56:50;1.92;;;1.60;;
146;SDS011;45999;48.808;9.182;2023-07-29T12:59:17;3.33;;;1.75;;
146;SDS011;45999;48.808;9.182;2023-07-29T13:01:43;1.65;;;1.55;;
146;SDS011;45999;48.808;9.182;2023-07-29T13:04:10;1.70;;;1.60;;
146;SDS011;45999;48.808;9.182;2023-07-29T13:06:37;1.70;;;1.50;;
146;SDS011;45999;48.808;9.182;2023-07-29T13:09:03;1.83;;;1.73;;
146;SDS011;45999;48.808;9.182;2023-07-29T13:11:31;1.60;;;1.50;;
146;SDS011;45999;48.808;9.182;2023-07-29T13:13:58;2.45;;;1.88;;
146;SDS011;45999;48.808;9.182;2023-07-29T13:16:25;1.60;;;1.50;;
146;SDS011;45999;48.808;9.182;2023-07-29T13:18:52;1.80;;;1.70;;
146;SDS011;45999;48.808;9.182;2023-07-29T13:21:18;1.73;;;1.63;;
146;SDS011;45999;48.808;9.182;2023-07-29T13:23:44;2.15;;;1.98;;
146;SDS011;45999;48.808;9.182;2023-07-29T13:26:11;1.48;;;1.35;;
146;SDS011;45999;48.808;9.182;2023-07-29T13:28:37;1.95;;;1.85;;
146;SDS011;45999;48.808;9.182;2023-07-29T13:31:03;1.70;;;1.60;;
146;SDS011;45999;48.808;9.182;2023-07-29T13:33:30;1.98;;;1.70;;
146;SDS011;45999;48.808;9.182;2023-07-29T13:35:59;1.55;;;1.45;;
146;SDS011;45999;48.808;9.182;2023-07-29T13:38:27;1.73;;;1.63;;
146;SDS011;45999;48.808;9.182;2023-07-29T13:40:53;1.67;;;1.55;;
146;SDS011;45999;48.808;9.182;2023-07-29T13:43:19;1.73;;;1.60;;
146;SDS011;45999;48.808;9.182;2023-07-29T13:45:46;2.05;;;1.65;;
146;SDS011;45999;48.808;9.182;2023-07-29T13:48:14;1.60;;;1.50;;
146;SDS011;45999;48.808;9.182;2023-07-29T13:50:40;1.70;;;1.60;;
146;SDS011;45999;48.808;9.182;2023-07-29T13:53:08;1.88;;;1.70;;
146;SDS011;45999;48.808;9.182;2023-07-29T13:55:35;1.80;;;1.70;;
146;SDS011;45999;48.808;9.182;2023-07-29T13:58:01;2.17;;;1.67;;
146;SDS011;45999;48.808;9.182;2023-07-29T14:00:27;1.77;;;1.60;;
146;SDS011;45999;48.808;9.182;2023-07-29T14:02:54;1.90;;;1.73;;
146;SDS011;45999;48.808;9.182;2023-07-29T14:05:20;1.70;;;1.58;;
146;SDS011;45999;48.808;9.182;2023-07-29T14:07:46;1.80;;;1.70;;
146;SDS011;45999;48.808;9.182;2023-07-29T14:10:13;1.73;;;1.63;;
146;SDS011;45999;48.808;9.182;2023-07-29T14:12:39;2.00;;;1.88;;
146;SDS011;45999;48.808;9.182;2023-07-29T14:15:06;1.95;;;1.65;;
146;SDS011;45999;48.808;9.182;2023-07-29T14:17:33;1.58;;;1.48;;
146;SDS011;45999;48.808;9.182;2023-07-29T14:19:59;2.08;;;1.48;;
146;SDS011;45999;48.808;9.182;2023-07-29T14:22:25;1.65;;;1.55;;
146;SDS011;45999;48.808;9.182;2023-07-29T14:24:52;1.98;;;1.67;;
146;SDS011;45999;48.808;9.182;2023-07-29T14:27:18;2.20;;;1.70;;
146;SDS011;45999;48.808;9.182;2023-07-29T14:29:44;1.70;;;1.60;;
146;SDS011;45999;48.808;9.182;2023-07-29T14:32:11;2.35;;;1.80;;
146;SDS011;45999;48.808;9.182;2023-07-29T14:34:37;1.50;;;1.40;;
146;SDS011;45999;48.808;9.182;2023-07-29T14:37:04;1.80;;;1.70;;
146;SDS011;45999;48.808;9.182;2023-07-29T14:39:31;1.70;;;1.60;;
146;SDS011;45999;48.808;9.182;2023-07-29T14:41:57;1.60;;;1.50;;
146;SDS011;45999;48.808;9.182;2023-07-29T14:44:24;1.90;;;1.80;;
146;SDS011;45999;48.808;9.182;2023-07-29T14:46:50;1.85;;;1.70;;
146;SDS011;45999;48.808;9.182;2023-07-29T14:49:16;1.67;;;1.58;;
146;SDS011;45999;48.808;9.182;2023-07-29T14:51:43;1.92;;;1.63;;
146;SDS011;45999;48.808;9.182;2023-07-29T14:54:09;2.28;;;1.52;;
146;SDS011;45999;48.808;9.182;2023-07-29T14:56:36;1.70;;;1.60;;
146;SDS011;45999;48.808;9.182;2023-07-29T14:59:02;1.50;;;1.40;;
146;SDS011;45999;48.808;9.182;2023-07-29T15:01:28;1.67;;;1.58;;
146;SDS011;45999;48.808;9.182;2023-07-29T15:03:55;1.85;;;1.48;;
146;SDS011;45999;48.808;9.182;2023-07-29T15:06:21;1.83;;;1.70;;
146;SDS011;45999;48.808;9.182;2023-07-29T15:08:47;2.00;;;1.90;;
146;SDS011;45999;48.808;9.182;2023-07-29T15:11:14;1.80;;;1.65;;
146;SDS011;45999;48.808;9.182;2023-07-29T15:13:40;1.75;;;1.65;;
146;SDS011;45999;48.808;9.182;2023-07-29T15:16:06;1.80;;;1.70;;
146;SDS011;45999;48.808;9.182;2023-07-29T15:18:33;1.90;;;1.80;;
146;SDS011;45999;48.808;9.182;2023-07-29T15:20:59;2.45;;;1.80;;
146;SDS011;45999;48.808;9.182;2023-07-29T15:23:27;2.10;;;2.00;;
146;SDS011;45999;48.808;9.182;2023-07-29T15:25:53;1.95;;;1.85;;
146;SDS011;45999;48.808;9.182;2023-07-29T15:28:20;2.25;;;2.10;;
146;SDS011;45999;48.808;9.182;2023-07-29T15:30:47;2.28;;;2.10;;
146;SDS011;45999;48.808;9.182;2023-07-29T15:33:13;2.67;;;2.30;;
146;SDS011;45999;48.808;9.182;2023-07-29T15:35:39;3.05;;;2.67;;
146;SDS011;45999;48.808;9.182;2023-07-29T15:38:06;1.92;;;1.75;;
146;SDS011;45999;48.808;9.182;2023-07-29T15:40:33;2.60;;;2.40;;
146;SDS011;45999;48.808;9.182;2023-07-29T15:42:59;2.25;;;2.10;;
146;SDS011;45999;48.808;9.182;2023-07-29T15:45:25;2.10;;;1.90;;